Due to severe server failure at the provider, not all demo sites are operational. Will take some days to rebuilt everything.

Demonstration site - Click on the  for more information

This is an optional block. Switch it on/off in your settings-file: $SITE['bannerTop'] = false; or $SITE['bannerBottom'] = false;

You can display ads, any other important text or photo’s using text / html or PHP code.

You can place one or more at the top and or bottom and it can all be different for content / size .



Visit our other weather sites:

Template documentation
and downloads

And another site



Nearby METAR Reports

   
EBAW - Antwerp
Updated: 24-08-2019 13:20
Clear  
Clear  
   Wind: ESE 9.3 km/h
Wind: ESE 9.3 km/h
Temperature: 28°C
Dew Point: 12°C
Humidity: 37%
Barometer: 1020 hPa
Visibility: More than 10 km
Cloud details: Clear ft
EBAW 241120Z 11005KT 070V180 CAVOK 28/12 Q1020 NOSIG
EBLG - Liège
Updated: 24-08-2019 13:20
Clear  
Clear  
   Wind: SSE 13 km/h
Wind: SSE 13 km/h
Temperature: 27°C
Heat Index: 27°C
Dew Point: 13°C
Humidity: 42%
Barometer: 1021 hPa
Visibility: More than 10 km
Cloud details: Clear ft
EBLG 241120Z 16007KT 110V200 CAVOK 27/13 Q1021 NOSIG
EBCV - Mons/Bergen
Updated: 24-08-2019 13:25
Clear  
Clear  
   Wind: ESE 11.1 km/h
Wind: ESE 11.1 km/h
Temperature: 28°C
Dew Point: 10°C
Humidity: 32%
Barometer: 1020 hPa
Clouds: Clear
Visibility: More than 10 km
Cloud details: Clear ft
EBCV 241125Z AUTO 11006KT 9999 NCD 28/10 Q1020 BLU
EHBK - Maastricht
Updated: 24-08-2019 13:25
Clear  
Clear  
   Wind: SE 13 km/h
Wind: SE 13 km/h
Temperature: 28°C
Heat Index: 28°C
Dew Point: 13°C
Humidity: 40%
Barometer: 1020 hPa
Clouds: Clear
Visibility: More than 10 km
Cloud details: Clear ft
EHBK 241125Z AUTO 13007KT 060V180 9999 NCD 28/13 Q1020 NOSIG
ELLX - Luxemburg
Updated: 24-08-2019 13:20
Clear  
Clear  
   Wind: varies 13 km/h
Wind: varies 13 km/h
Temperature: 26°C
Dew Point: 13°C
Humidity: 45%
Barometer: 1021 hPa
Visibility: More than 10 km
Cloud details: Clear ft
ELLX 241120Z VRB07KT CAVOK 26/13 Q1021 NOSIG
EBOS - Oostende
Updated: 24-08-2019 13:20
Clear  
Clear  
   Wind: NNE 14.8 km/h
Wind: NNE 14.8 km/h
Temperature: 26°C
Dew Point: 16°C
Humidity: 54%
Barometer: 1020 hPa
Visibility: More than 10 km
Cloud details: Clear ft
EBOS 241120Z 02008KT CAVOK 26/16 Q1020 NOSIG

Script developed by  Saratoga-weather.org Adapted for the template by  Weerstation Leuven

You find our weather info also at:

FRWN

Equipment we use:

Provider
Robohost

Robohost

This is an optional block. Switch it on/off in your settings-file: $SITE['bannerTop'] = false; or $SITE['bannerBottom'] = false;

You can display ads, any other important text or photo’s using text / html or PHP code.

You can place one or more at the top and or bottom and it can all be different for content / size .